NCAR-RAP Real-Time Weather Data

Output produced by METARs form (08 May 2021  01:51 UTC)
found at http://weather.rap.ucar.edu/surface/
 
KPRB 080053Z AUTO 30010KT 10SM CLR 26/02 A2994 RMK AO2 SLP132 T02560022
KPRB 072353Z AUTO 27010G15KT 250V320 10SM CLR 27/M08 A2994 RMK AO2 SLP132 T02721083 10278 20194 56013
KPRB 072253Z AUTO 33013KT 10SM CLR 27/M05 A2995 RMK AO2 SLP136 T02721050
KPRB 072153Z AUTO 29009G18KT 10SM CLR 28/M16 A2996 RMK AO2 SLP140 T02781156
KPRB 072053Z AUTO 34007KT 10SM CLR 27/M05 A2998 RMK AO2 SLP146 T02671050 58021
KPRB 071953Z AUTO 33011G20KT 10SM CLR 26/M06 A3001 RMK AO2 SLP157 T02561056
KPRB 071853Z AUTO 29012KT 10SM CLR 22/M01 A3003 RMK AO2 SLP163 T02221011
KPRB 071753Z AUTO 32014KT 10SM CLR 19/02 A3004 RMK AO2 SLP168 T01940017 10194 20094 58006
KPRB 071653Z AUTO 31009KT 10SM CLR 16/06 A3006 RMK AO2 SLP174 T01560061
KPRB 071553Z AUTO 31011KT 10SM CLR 13/06 A3006 RMK AO2 SLP177 T01280061
KPRB 071453Z AUTO 32008KT 10SM CLR 11/07 A3006 RMK AO2 SLP176 T01110067 51010
KPRB 071421Z AUTO 34009KT 10SM FEW005 10/07 A3007 RMK AO2 T01000072
KPRB 071403Z AUTO 33010KT 10SM BKN005 10/07 A3006 RMK AO2 T01000072
KPRB 071353Z AUTO 33009KT 10SM OVC004 09/07 A3006 RMK AO2 SLP175 T00940072
KPRB 071253Z AUTO 31010KT 10SM OVC004 10/08 A3004 RMK AO2 SLP167 T01000078